Time;durP1;ratioP1;P1;durP2;ratioP2;P2;SDS_P1;SDS_P2;PMS_P1;PMS_P2;Temp;Humidity;BMP_temperature;BMP_pressure;BME280_temperature;BME280_humidity;BME280_pressure;Samples;Min_cycle;Max_cycle;Signal;HPM_P1;HPM_P2
2022/11/27 00:02:09;;;;;;;20.23;7.07;;;6.20;99.90;;;;;;4936954;28;20412;-68
2022/11/27 00:04:35;;;;;;;19.20;5.57;;;6.20;99.90;;;;;;4937596;28;20074;-68
2022/11/27 00:07:01;;;;;;;23.50;8.15;;;6.20;99.90;;;;;;4953824;28;20054;-68
2022/11/27 00:09:26;;;;;;;18.15;6.78;;;6.20;99.90;;;;;;4973687;28;20038;-68
2022/11/27 00:11:52;;;;;;;21.63;7.15;;;6.20;99.90;;;;;;4956822;28;20046;-68
2022/11/27 00:14:18;;;;;;;15.77;7.15;;;6.20;99.90;;;;;;4974258;28;20062;-68
2022/11/27 00:16:44;;;;;;;17.67;6.70;;;6.30;99.90;;;;;;4974318;28;20486;-68
2022/11/27 00:19:10;;;;;;;15.82;5.15;;;6.30;99.90;;;;;;4974343;28;20046;-68
2022/11/27 00:21:37;;;;;;;18.73;5.97;;;6.30;99.90;;;;;;4956542;28;20053;-68
2022/11/27 00:24:05;;;;;;;17.77;5.40;;;6.30;99.90;;;;;;4954917;29;20054;-68
2022/11/27 00:26:31;;;;;;;15.68;6.35;;;6.30;99.90;;;;;;4969132;28;20047;-68
2022/11/27 00:28:57;;;;;;;19.00;6.38;;;6.30;99.90;;;;;;4969760;28;20043;-67
2022/11/27 00:31:27;;;;;;;11.77;4.47;;;6.30;99.90;;;;;;4954791;29;20090;-68
2022/11/27 00:33:54;;;;;;;20.13;6.20;;;6.30;99.90;;;;;;4937850;29;20039;-68
2022/11/27 00:36:20;;;;;;;14.82;7.05;;;6.40;99.90;;;;;;4969489;28;20047;-68
2022/11/27 00:38:46;;;;;;;16.10;7.28;;;6.30;99.90;;;;;;4954762;29;20058;-68
2022/11/27 00:41:18;;;;;;;19.80;6.00;;;6.40;99.90;;;;;;4954191;29;20101;-68
2022/11/27 00:43:44;;;;;;;15.20;6.07;;;6.40;99.90;;;;;;4969211;28;20039;-68
2022/11/27 00:46:11;;;;;;;18.45;5.55;;;6.40;99.90;;;;;;4954519;29;20039;-68
2022/11/27 00:48:37;;;;;;;18.10;5.30;;;6.30;99.90;;;;;;4937597;29;20082;-68
2022/11/27 00:51:05;;;;;;;24.10;8.02;;;6.40;99.90;;;;;;4954615;29;20043;-69
2022/11/27 00:53:32;;;;;;;11.55;5.03;;;6.40;99.90;;;;;;4921161;29;20031;-68
2022/11/27 00:55:58;;;;;;;15.38;4.93;;;6.30;99.90;;;;;;4969506;28;20061;-69
2022/11/27 00:58:25;;;;;;;14.27;5.43;;;6.40;99.90;;;;;;4954245;29;20054;-68
2022/11/27 01:01:18;;;;;;;23.65;6.25;;;6.30;99.90;;;;;;4954162;29;20102;-70
2022/11/27 01:03:45;;;;;;;15.02;5.05;;;6.40;99.90;;;;;;4969012;28;20039;-68
2022/11/27 01:06:10;;;;;;;13.88;5.80;;;6.30;99.90;;;;;;4921337;29;20052;-69
2022/11/27 01:08:36;;;;;;;12.25;5.22;;;6.20;99.90;;;;;;4953710;29;20522;-69
2022/11/27 01:11:02;;;;;;;15.73;5.63;;;6.20;99.90;;;;;;4954051;29;20123;-68
2022/11/27 01:13:34;;;;;;;17.52;6.05;;;6.20;99.90;;;;;;4968657;28;20310;-69
2022/11/27 01:16:06;;;;;;;14.73;5.13;;;6.20;99.90;;;;;;4937040;29;20128;-67
2022/11/27 01:18:34;;;;;;;19.73;4.53;;;6.20;99.90;;;;;;4968399;28;20134;-68
2022/11/27 01:21:00;;;;;;;14.80;5.20;;;6.20;99.90;;;;;;4953811;29;20043;-68
2022/11/27 01:23:26;;;;;;;17.63;5.82;;;6.20;99.90;;;;;;4936243;29;20077;-68
2022/11/27 01:25:52;;;;;;;14.98;4.72;;;6.20;99.90;;;;;;4936562;29;20102;-69
2022/11/27 01:28:21;;;;;;;20.23;4.93;;;6.10;99.90;;;;;;4920667;29;20058;-68
2022/11/27 01:30:48;;;;;;;14.95;5.90;;;6.10;99.90;;;;;;4936711;29;20374;-68
2022/11/27 01:33:13;;;;;;;18.02;6.32;;;6.10;99.90;;;;;;4953679;29;20027;-69
2022/11/27 01:35:39;;;;;;;11.35;4.75;;;6.10;99.90;;;;;;4953717;29;20119;-68
2022/11/27 01:38:05;;;;;;;15.18;5.25;;;6.10;99.90;;;;;;4936053;29;20130;-69
2022/11/27 01:40:31;;;;;;;16.02;5.85;;;6.10;99.90;;;;;;4953614;28;20098;-68
2022/11/27 01:42:56;;;;;;;16.30;4.85;;;6.10;99.90;;;;;;4953486;29;20047;-68
2022/11/27 01:45:22;;;;;;;18.13;6.68;;;6.10;99.90;;;;;;4920405;29;20047;-68
2022/11/27 01:47:57;;;;;;;19.08;5.90;;;6.00;99.90;;;;;;4920337;29;20043;-69
2022/11/27 01:50:36;;;;;;;23.52;8.38;;;6.00;99.90;;;;;;4936380;29;20082;-68
2022/11/27 01:53:09;;;;;;;16.00;6.13;;;6.00;99.90;;;;;;4935731;29;20043;-69
2022/11/27 01:55:39;;;;;;;13.43;5.00;;;6.00;99.90;;;;;;4936103;29;20105;-69
2022/11/27 01:58:16;;;;;;;12.23;5.45;;;6.10;99.90;;;;;;4953389;29;20047;-68
2022/11/27 02:00:42;;;;;;;14.73;5.50;;;6.00;99.90;;;;;;4953075;29;20047;-68
2022/11/27 02:03:08;;;;;;;12.88;5.30;;;6.10;99.90;;;;;;4936099;29;20311;-68
2022/11/27 02:05:33;;;;;;;19.27;6.28;;;6.00;99.90;;;;;;4952865;29;20050;-68
2022/11/27 02:08:03;;;;;;;15.02;5.03;;;6.00;99.90;;;;;;4945060;28;20051;-69
2022/11/27 02:10:52;;;;;;;10.68;5.93;;;6.00;99.90;;;;;;4971581;28;20377;-69
2022/11/27 02:13:21;;;;;;;11.23;5.53;;;6.00;99.90;;;;;;4970975;28;20039;-70
2022/11/27 02:16:00;;;;;;;14.18;5.30;;;6.00;99.90;;;;;;4971107;28;20501;-69
2022/11/27 02:18:37;;;;;;;16.20;6.18;;;6.00;99.90;;;;;;4953840;28;20047;-68
2022/11/27 02:21:28;;;;;;;15.02;5.95;;;5.90;99.90;;;;;;4970596;28;20050;-69
2022/11/27 02:24:19;;;;;;;16.42;6.07;;;5.90;99.90;;;;;;4939866;29;20047;-69
2022/11/27 02:27:20;;;;;;;10.50;4.57;;;5.80;99.90;;;;;;4951783;29;20074;-68
2022/11/27 02:29:48;;;;;;;12.38;4.85;;;5.80;99.90;;;;;;4910478;29;20093;-69
2022/11/27 02:32:20;;;;;;;11.32;5.07;;;5.80;99.90;;;;;;4949565;29;20118;-69
2022/11/27 02:35:15;;;;;;;12.20;5.40;;;5.70;99.90;;;;;;4950332;29;20110;-69
2022/11/27 02:37:56;;;;;;;17.73;5.72;;;5.80;99.90;;;;;;4947447;29;20122;-68
2022/11/27 02:40:36;;;;;;;14.23;5.75;;;5.80;99.90;;;;;;4935047;29;20051;-69
2022/11/27 02:43:18;;;;;;;13.65;5.43;;;5.80;99.90;;;;;;4915231;29;20047;-68
2022/11/27 02:45:47;;;;;;;16.25;5.97;;;5.80;99.90;;;;;;4915110;29;20498;-69
2022/11/27 02:48:15;;;;;;;21.35;5.70;;;5.70;99.90;;;;;;4932226;29;20046;-69
2022/11/27 02:50:43;;;;;;;10.13;5.05;;;5.80;99.90;;;;;;4923176;29;20035;-69
2022/11/27 02:53:20;;;;;;;16.38;5.85;;;5.80;99.90;;;;;;4951195;29;20095;-69
2022/11/27 02:55:49;;;;;;;14.73;6.60;;;5.80;99.90;;;;;;4934258;29;20081;-69
2022/11/27 02:58:20;;;;;;;13.25;5.25;;;5.80;99.90;;;;;;4918213;29;20090;-69
2022/11/27 03:00:46;;;;;;;10.90;5.63;;;5.80;99.90;;;;;;4933954;29;20051;-69
2022/11/27 03:03:16;;;;;;;10.93;5.53;;;5.90;99.90;;;;;;4951273;29;20047;-68
2022/11/27 03:05:44;;;;;;;10.95;5.53;;;5.80;99.90;;;;;;4933657;29;20066;-69
2022/11/27 03:08:32;;;;;;;12.48;5.78;;;5.90;99.90;;;;;;4933973;29;20082;-69
2022/11/27 03:11:01;;;;;;;13.75;5.50;;;5.90;99.90;;;;;;4918113;29;20121;-69
2022/11/27 03:13:29;;;;;;;12.27;5.97;;;5.90;99.90;;;;;;4933726;29;20082;-69
2022/11/27 03:16:15;;;;;;;15.65;7.00;;;5.90;99.90;;;;;;4934139;29;20059;-69
2022/11/27 03:19:31;;;;;;;14.60;6.00;;;5.90;99.90;;;;;;4933685;29;20055;-68
2022/11/27 03:21:59;;;;;;;13.10;4.95;;;5.90;99.90;;;;;;4943382;29;20351;-69
2022/11/27 03:24:26;;;;;;;16.08;6.30;;;5.90;99.90;;;;;;4933722;29;20043;-69
2022/11/27 03:26:55;;;;;;;13.18;6.72;;;5.90;99.90;;;;;;4934078;29;20110;-68
2022/11/27 03:29:40;;;;;;;16.55;5.95;;;5.90;99.90;;;;;;4931532;29;20557;-69
2022/11/27 03:32:06;;;;;;;17.73;5.78;;;5.90;99.90;;;;;;4899291;29;20167;-69
2022/11/27 03:34:32;;;;;;;13.10;5.38;;;5.90;99.90;;;;;;4915148;29;20525;-69
2022/11/27 03:36:59;;;;;;;13.18;5.78;;;5.90;99.90;;;;;;4933342;28;20047;-69
2022/11/27 03:39:25;;;;;;;15.32;6.65;;;5.90;99.90;;;;;;4950553;28;20126;-68
2022/11/27 03:42:22;;;;;;;15.15;7.22;;;5.90;99.90;;;;;;4955978;28;20054;-68
2022/11/27 03:45:06;;;;;;;22.63;7.35;;;6.00;99.90;;;;;;4955399;28;20477;-68
2022/11/27 03:47:54;;;;;;;14.63;7.20;;;5.90;99.90;;;;;;4938038;29;20081;-69
2022/11/27 03:50:40;;;;;;;13.90;6.05;;;5.90;99.90;;;;;;4954818;29;20122;-68
2022/11/27 03:53:42;;;;;;;11.85;5.95;;;5.90;99.90;;;;;;4922442;29;20075;-68
2022/11/27 03:56:25;;;;;;;13.52;5.65;;;5.90;99.90;;;;;;4937179;29;20050;-68
2022/11/27 03:59:00;;;;;;;14.00;6.82;;;5.90;99.90;;;;;;4955182;28;20387;-69
2022/11/27 04:01:27;;;;;;;18.65;7.68;;;5.90;99.90;;;;;;4933989;29;20051;-67
2022/11/27 04:03:53;;;;;;;15.45;6.10;;;5.90;99.90;;;;;;4956672;28;20062;-67
2022/11/27 04:06:19;;;;;;;13.20;6.35;;;5.90;99.90;;;;;;4937903;28;20035;-68
2022/11/27 04:08:46;;;;;;;11.70;5.13;;;5.90;99.90;;;;;;4941748;28;20486;-69
2022/11/27 04:11:14;;;;;;;14.45;6.15;;;5.90;99.90;;;;;;4948346;28;20030;-69
2022/11/27 04:13:40;;;;;;;12.07;6.00;;;5.90;99.90;;;;;;4955936;28;20054;-68
2022/11/27 04:16:06;;;;;;;14.07;5.32;;;5.90;99.90;;;;;;4946814;28;20101;-69
2022/11/27 04:18:32;;;;;;;14.43;6.28;;;5.90;99.90;;;;;;4916990;29;20115;-68
2022/11/27 04:20:57;;;;;;;14.05;6.57;;;5.90;99.90;;;;;;4933315;29;20494;-68
2022/11/27 04:23:23;;;;;;;12.98;5.10;;;5.80;99.90;;;;;;4933524;29;20051;-69
2022/11/27 04:25:50;;;;;;;16.27;6.38;;;5.80;99.90;;;;;;4934574;29;20047;-68
2022/11/27 04:28:16;;;;;;;16.02;6.05;;;5.80;99.90;;;;;;4934803;29;20053;-69
2022/11/27 04:30:43;;;;;;;20.40;7.85;;;5.80;99.90;;;;;;4933658;29;20114;-69
2022/11/27 04:33:09;;;;;;;13.25;5.35;;;5.80;99.90;;;;;;4932884;29;20039;-68
2022/11/27 04:35:34;;;;;;;15.25;6.63;;;5.80;99.90;;;;;;4934746;29;20039;-68
2022/11/27 04:38:00;;;;;;;12.50;6.13;;;5.80;99.90;;;;;;4934500;29;20040;-68
2022/11/27 04:40:26;;;;;;;17.23;5.88;;;5.80;99.90;;;;;;4933168;29;20102;-68
2022/11/27 04:42:52;;;;;;;15.43;5.32;;;5.80;99.90;;;;;;4933514;29;20047;-68
2022/11/27 04:45:18;;;;;;;12.85;5.43;;;5.80;99.90;;;;;;4934209;29;20459;-69
2022/11/27 04:47:44;;;;;;;12.40;4.95;;;5.90;99.90;;;;;;4933851;29;20039;-68
2022/11/27 04:50:10;;;;;;;13.45;4.63;;;5.80;99.90;;;;;;4934521;29;20501;-69
2022/11/27 04:52:36;;;;;;;6.72;4.20;;;5.90;99.90;;;;;;4934419;29;20094;-69
2022/11/27 04:55:03;;;;;;;17.27;5.65;;;5.90;99.90;;;;;;4932418;29;20137;-68
2022/11/27 04:57:28;;;;;;;13.75;6.72;;;5.90;99.90;;;;;;4932827;29;20048;-68
2022/11/27 04:59:54;;;;;;;9.77;5.55;;;5.90;99.90;;;;;;4933720;29;20039;-68
2022/11/27 05:02:20;;;;;;;11.02;4.22;;;5.90;99.90;;;;;;4933955;29;20450;-68
2022/11/27 05:04:46;;;;;;;10.45;4.13;;;5.90;99.90;;;;;;4932668;29;20043;-69
2022/11/27 05:07:11;;;;;;;16.90;6.18;;;6.00;99.90;;;;;;4933821;29;20040;-69
2022/11/27 05:09:37;;;;;;;12.35;5.07;;;6.00;99.90;;;;;;4933973;29;20043;-69
2022/11/27 05:12:03;;;;;;;10.93;4.07;;;6.00;99.90;;;;;;4932848;29;20036;-69
2022/11/27 05:14:29;;;;;;;11.07;4.57;;;6.00;99.90;;;;;;4931989;29;20098;-67
2022/11/27 05:16:57;;;;;;;13.38;6.30;;;6.00;99.90;;;;;;4933788;29;20083;-68
2022/11/27 05:19:25;;;;;;;14.38;5.93;;;6.00;99.90;;;;;;4932771;29;20402;-68
2022/11/27 05:21:51;;;;;;;9.52;4.13;;;6.00;99.90;;;;;;4932473;29;20054;-71
2022/11/27 05:24:19;;;;;;;13.10;4.10;;;6.00;99.90;;;;;;4933542;29;20082;-71
2022/11/27 05:26:46;;;;;;;13.40;5.38;;;6.10;99.90;;;;;;4932376;29;20051;-69
2022/11/27 05:29:13;;;;;;;13.00;3.85;;;6.10;99.90;;;;;;4933135;29;20039;-69
2022/11/27 05:31:38;;;;;;;12.55;4.22;;;6.10;99.90;;;;;;4933740;29;20094;-69
2022/11/27 05:34:05;;;;;;;17.13;5.57;;;6.10;99.90;;;;;;4932601;29;20443;-68
2022/11/27 05:36:32;;;;;;;10.50;4.15;;;6.10;99.90;;;;;;4933388;29;20501;-69
2022/11/27 05:38:59;;;;;;;8.52;4.13;;;6.10;99.90;;;;;;4916381;29;20035;-68
2022/11/27 05:41:25;;;;;;;12.43;3.45;;;6.10;99.90;;;;;;4933376;29;20142;-69
2022/11/27 05:43:51;;;;;;;15.02;4.93;;;6.10;99.90;;;;;;4932784;29;20179;-69
2022/11/27 05:46:19;;;;;;;12.85;3.67;;;6.10;99.90;;;;;;4916098;29;20087;-68
2022/11/27 05:48:45;;;;;;;8.55;3.78;;;6.10;99.90;;;;;;4931910;29;20126;-69
2022/11/27 05:51:11;;;;;;;9.82;4.03;;;6.10;99.90;;;;;;4931935;29;20183;-68
2022/11/27 05:53:37;;;;;;;10.77;4.07;;;6.10;99.90;;;;;;4916007;29;20043;-68
2022/11/27 05:56:05;;;;;;;9.63;4.45;;;6.10;99.90;;;;;;4931840;29;20050;-69
2022/11/27 05:58:31;;;;;;;10.15;4.07;;;6.10;99.90;;;;;;4932799;29;20107;-68
2022/11/27 06:00:58;;;;;;;9.00;2.90;;;6.10;99.90;;;;;;4933223;29;20469;-68
2022/11/27 06:03:24;;;;;;;10.65;2.90;;;6.10;99.90;;;;;;4933106;29;20078;-69
2022/11/27 06:05:49;;;;;;;6.53;3.50;;;6.10;99.90;;;;;;4932963;29;20130;-69
2022/11/27 06:08:15;;;;;;;12.77;4.10;;;6.10;99.90;;;;;;4931697;29;20059;-68
2022/11/27 06:10:41;;;;;;;9.35;3.83;;;6.10;99.90;;;;;;4932864;29;20036;-68
2022/11/27 06:13:07;;;;;;;7.82;3.55;;;6.10;99.90;;;;;;4932784;29;20138;-68
2022/11/27 06:15:32;;;;;;;7.00;2.88;;;6.10;99.90;;;;;;4931439;29;20090;-69
2022/11/27 06:17:58;;;;;;;7.88;4.15;;;6.10;99.90;;;;;;4931866;29;20486;-68
2022/11/27 06:20:24;;;;;;;13.77;3.58;;;6.10;99.90;;;;;;4931564;29;20414;-68
2022/11/27 06:22:50;;;;;;;6.85;3.60;;;6.10;99.90;;;;;;4931396;29;20126;-67
2022/11/27 06:25:16;;;;;;;9.02;4.03;;;6.10;99.90;;;;;;4932589;29;20079;-67
2022/11/27 06:27:42;;;;;;;14.68;4.10;;;6.20;99.90;;;;;;4931109;29;20075;-67
2022/11/27 06:30:08;;;;;;;7.10;3.65;;;6.20;99.90;;;;;;4931334;29;20119;-68
2022/11/27 06:32:34;;;;;;;7.82;3.17;;;6.20;99.90;;;;;;4915479;29;20068;-68
2022/11/27 06:35:00;;;;;;;6.10;3.00;;;6.20;99.90;;;;;;4932654;29;20048;-68
2022/11/27 06:37:25;;;;;;;13.20;3.60;;;6.20;99.90;;;;;;4932527;29;20047;-68
2022/11/27 06:39:51;;;;;;;10.38;3.63;;;6.20;99.90;;;;;;4931499;29;20145;-69
2022/11/27 06:42:17;;;;;;;9.18;4.10;;;6.20;99.90;;;;;;4931927;29;20044;-68
2022/11/27 06:44:43;;;;;;;9.50;3.58;;;6.20;99.90;;;;;;4932257;29;20122;-68
2022/11/27 06:47:08;;;;;;;11.77;4.07;;;6.20;99.90;;;;;;4931046;29;20047;-68
2022/11/27 06:49:34;;;;;;;13.07;4.25;;;6.20;99.90;;;;;;4932359;29;20059;-68
2022/11/27 06:52:00;;;;;;;8.07;3.55;;;6.20;99.90;;;;;;4931071;29;20043;-68
2022/11/27 06:54:26;;;;;;;11.95;3.90;;;6.20;99.90;;;;;;4930965;29;20131;-68
2022/11/27 06:56:52;;;;;;;10.40;3.95;;;6.20;99.90;;;;;;4931671;29;20119;-67
2022/11/27 06:59:18;;;;;;;8.13;3.70;;;6.20;99.90;;;;;;4915033;29;20048;-68
2022/11/27 07:01:45;;;;;;;9.35;2.95;;;6.20;99.90;;;;;;4931266;29;20067;-69
2022/11/27 07:04:13;;;;;;;9.57;3.40;;;6.20;99.90;;;;;;4930802;29;20276;-68
2022/11/27 07:06:39;;;;;;;9.18;3.42;;;6.20;99.90;;;;;;4932252;29;20039;-68
2022/11/27 07:09:05;;;;;;;8.00;3.80;;;6.30;99.90;;;;;;4932206;29;20146;-68
2022/11/27 07:11:31;;;;;;;8.20;2.40;;;6.30;99.90;;;;;;4931873;29;20047;-67
2022/11/27 07:14:00;;;;;;;7.85;3.63;;;6.30;99.90;;;;;;4930699;29;20099;-67
2022/11/27 07:16:27;;;;;;;8.43;3.40;;;6.30;99.90;;;;;;4932190;29;20079;-67
2022/11/27 07:18:56;;;;;;;9.75;3.78;;;6.30;99.90;;;;;;4936019;29;20047;-67
2022/11/27 07:21:22;;;;;;;8.38;3.72;;;6.30;99.90;;;;;;4934960;29;20466;-69
2022/11/27 07:23:48;;;;;;;9.05;2.85;;;6.30;99.90;;;;;;4918681;29;20058;-67
2022/11/27 07:26:23;;;;;;;5.57;2.90;;;6.30;99.90;;;;;;4934194;29;20047;-67
2022/11/27 07:28:48;;;;;;;9.98;5.03;;;6.30;99.90;;;;;;4934568;29;20067;-68
2022/11/27 07:31:17;;;;;;;9.00;3.45;;;6.30;99.90;;;;;;4935930;29;20092;-67
2022/11/27 07:33:43;;;;;;;7.25;3.20;;;6.30;99.90;;;;;;4934756;29;20123;-68
2022/11/27 07:36:18;;;;;;;11.13;3.67;;;6.40;99.90;;;;;;4934415;29;20577;-67
2022/11/27 07:38:45;;;;;;;9.55;3.70;;;6.30;99.90;;;;;;4935909;29;20063;-68
2022/11/27 07:41:12;;;;;;;9.30;3.22;;;6.30;99.90;;;;;;4933892;29;20537;-67
2022/11/27 07:43:38;;;;;;;8.35;3.30;;;6.40;99.90;;;;;;4935676;29;20062;-68
2022/11/27 07:46:21;;;;;;;7.90;2.78;;;6.40;99.90;;;;;;4935646;29;20127;-67
2022/11/27 07:48:47;;;;;;;5.93;3.50;;;6.40;99.90;;;;;;4918628;29;20065;-68
2022/11/27 07:51:16;;;;;;;8.10;3.53;;;6.40;99.90;;;;;;4918342;29;20482;-66
2022/11/27 07:53:43;;;;;;;12.75;4.00;;;6.40;99.90;;;;;;4934556;29;20467;-67
2022/11/27 07:56:11;;;;;;;8.43;3.60;;;6.40;99.90;;;;;;4933594;29;20502;-67
2022/11/27 07:58:37;;;;;;;11.07;3.63;;;6.40;99.90;;;;;;4934028;29;20050;-67
2022/11/27 08:01:11;;;;;;;10.40;4.20;;;6.40;99.90;;;;;;4935322;29;20126;-67
2022/11/27 08:03:37;;;;;;;8.43;3.47;;;6.40;99.90;;;;;;4934104;29;20085;-68
2022/11/27 08:06:03;;;;;;;10.55;4.05;;;6.40;99.90;;;;;;4935069;29;20340;-67
2022/11/27 08:08:29;;;;;;;6.43;3.42;;;6.40;99.90;;;;;;4933370;29;20046;-67
2022/11/27 08:10:55;;;;;;;9.48;3.67;;;6.40;99.90;;;;;;4935132;29;20039;-68
2022/11/27 08:13:21;;;;;;;6.38;3.00;;;6.50;99.90;;;;;;4934925;29;20043;-67
2022/11/27 08:15:47;;;;;;;6.72;3.80;;;6.40;99.90;;;;;;4937093;29;20047;-66
2022/11/27 08:18:12;;;;;;;10.50;4.40;;;6.40;99.90;;;;;;4954192;29;20537;-69
2022/11/27 08:20:38;;;;;;;8.90;3.95;;;6.40;99.90;;;;;;4921047;29;20043;-67
2022/11/27 08:23:04;;;;;;;9.57;5.07;;;6.50;99.90;;;;;;4936037;29;20043;-68
2022/11/27 08:25:30;;;;;;;11.50;4.53;;;6.50;99.90;;;;;;4936595;29;20522;-67
2022/11/27 08:27:56;;;;;;;9.45;4.18;;;6.40;99.90;;;;;;4936567;28;20389;-68
2022/11/27 08:30:22;;;;;;;9.93;3.88;;;6.40;99.90;;;;;;4953441;29;20046;-68
2022/11/27 08:32:48;;;;;;;10.05;5.20;;;6.50;99.90;;;;;;4936667;29;20114;-68
2022/11/27 08:35:14;;;;;;;8.45;3.63;;;6.40;99.90;;;;;;4920527;29;20482;-69
2022/11/27 08:37:40;;;;;;;8.77;4.18;;;6.40;99.90;;;;;;4953187;29;20105;-68
2022/11/27 08:40:06;;;;;;;12.02;4.38;;;6.50;99.90;;;;;;4953739;29;20047;-68
2022/11/27 08:42:32;;;;;;;9.48;3.92;;;6.50;99.90;;;;;;4951454;28;20501;-67
2022/11/27 08:44:58;;;;;;;11.10;4.97;;;6.50;99.90;;;;;;4935881;29;20054;-68
2022/11/27 08:47:23;;;;;;;10.77;3.78;;;6.50;99.90;;;;;;4935984;29;20348;-68
2022/11/27 08:49:49;;;;;;;10.00;4.30;;;6.50;99.90;;;;;;4953156;29;20097;-67
2022/11/27 08:52:15;;;;;;;13.73;5.55;;;6.50;99.90;;;;;;4967561;28;20126;-68
2022/11/27 08:54:41;;;;;;;9.35;4.70;;;6.40;99.90;;;;;;4952909;29;20082;-67
2022/11/27 08:57:06;;;;;;;7.72;4.47;;;6.40;99.90;;;;;;4968102;28;20075;-68
2022/11/27 08:59:32;;;;;;;9.70;4.38;;;6.40;99.90;;;;;;4953419;29;20486;-67
2022/11/27 09:01:58;;;;;;;10.35;4.93;;;6.40;99.90;;;;;;4968096;28;20047;-68
2022/11/27 09:04:23;;;;;;;11.88;5.05;;;6.30;99.90;;;;;;4939037;28;20051;-67
2022/11/27 09:06:49;;;;;;;10.00;4.32;;;6.30;99.90;;;;;;4935143;29;20054;-67
2022/11/27 09:09:15;;;;;;;11.98;5.18;;;6.30;99.90;;;;;;4942396;29;20039;-68
2022/11/27 09:11:41;;;;;;;10.32;4.72;;;6.30;99.90;;;;;;4952594;29;20043;-67
2022/11/27 09:14:07;;;;;;;10.07;4.95;;;6.30;99.90;;;;;;4952441;29;20078;-67
2022/11/27 09:16:34;;;;;;;14.00;5.13;;;6.30;99.90;;;;;;4935519;29;20054;-67
2022/11/27 09:19:00;;;;;;;9.85;5.47;;;6.30;99.90;;;;;;4935501;29;20481;-67
2022/11/27 09:21:27;;;;;;;16.02;6.15;;;6.20;99.90;;;;;;4934967;29;20035;-68
2022/11/27 09:23:57;;;;;;;8.85;5.00;;;6.30;99.90;;;;;;4953034;29;20458;-66
2022/11/27 09:26:24;;;;;;;12.05;5.28;;;6.20;99.90;;;;;;4935147;29;20043;-67
2022/11/27 09:28:51;;;;;;;13.38;5.00;;;6.20;99.90;;;;;;4919636;29;20536;-68
2022/11/27 09:31:18;;;;;;;14.32;5.47;;;6.20;99.90;;;;;;4952677;29;20032;-67
2022/11/27 09:33:44;;;;;;;13.65;5.78;;;6.20;99.90;;;;;;4935183;29;20522;-66
2022/11/27 09:36:18;;;;;;;15.35;5.45;;;6.20;99.90;;;;;;4951830;29;20047;-67
2022/11/27 09:38:44;;;;;;;9.77;4.55;;;6.10;99.90;;;;;;4934669;29;20051;-66
2022/11/27 09:41:10;;;;;;;11.45;4.60;;;6.20;99.90;;;;;;4934524;29;20045;-67
2022/11/27 09:43:50;;;;;;;12.68;5.35;;;6.20;99.90;;;;;;4934877;29;20692;-67
2022/11/27 09:46:25;;;;;;;15.02;6.85;;;6.20;99.90;;;;;;4952292;29;20051;-67
2022/11/27 09:48:52;;;;;;;12.55;5.35;;;6.20;99.90;;;;;;4952110;29;20049;-68
2022/11/27 09:51:30;;;;;;;12.98;6.20;;;6.20;99.90;;;;;;4951834;29;20450;-67
2022/11/27 09:54:19;;;;;;;14.68;6.10;;;6.20;99.90;;;;;;4934739;29;20047;-68
2022/11/27 09:56:49;;;;;;;11.57;5.93;;;6.20;99.90;;;;;;4934851;29;20047;-67
2022/11/27 09:59:17;;;;;;;9.02;4.72;;;6.20;99.90;;;;;;4934709;29;20168;-68
2022/11/27 10:01:44;;;;;;;14.32;7.05;;;6.20;99.90;;;;;;4951654;29;20053;-67
2022/11/27 10:04:16;;;;;;;16.90;7.03;;;6.20;99.90;;;;;;4929983;28;20445;-66
2022/11/27 10:06:58;;;;;;;16.23;6.13;;;6.20;99.90;;;;;;4949178;28;20102;-67
2022/11/27 10:09:52;;;;;;;13.70;6.32;;;6.20;99.90;;;;;;4925915;29;20043;-68
2022/11/27 10:12:32;;;;;;;10.73;6.07;;;6.20;99.90;;;;;;4934082;29;20514;-66
2022/11/27 10:15:05;;;;;;;15.05;8.27;;;6.20;99.90;;;;;;4949517;28;20407;-66
2022/11/27 10:17:47;;;;;;;15.63;6.80;;;6.20;99.90;;;;;;4952480;28;20043;-67
2022/11/27 10:20:39;;;;;;;12.25;5.20;;;6.30;99.90;;;;;;4937127;28;20074;-67
2022/11/27 10:23:29;;;;;;;11.63;5.90;;;6.30;99.90;;;;;;4956507;28;20050;-70
2022/11/27 10:26:00;;;;;;;14.30;6.53;;;6.30;99.90;;;;;;4955787;28;20599;-67
2022/11/27 10:28:28;;;;;;;;;;;6.30;99.90;;;;;;4935917;28;20122;-67
2022/11/27 10:31:12;;;;;;;17.20;7.30;;;6.30;99.90;;;;;;4934760;29;19925;-67
2022/11/27 10:33:53;;;;;;;14.07;6.63;;;6.30;99.90;;;;;;4914270;29;20039;-66
2022/11/27 10:36:42;;;;;;;11.10;6.30;;;6.40;99.90;;;;;;4937087;29;20053;-66
2022/11/27 10:39:21;;;;;;;12.57;5.63;;;6.40;99.90;;;;;;4940741;28;20047;-67
2022/11/27 10:42:00;;;;;;;18.77;7.00;;;6.40;99.90;;;;;;4951776;28;20497;-66
2022/11/27 10:44:47;;;;;;;16.70;6.97;;;6.40;99.90;;;;;;4950945;28;20050;-66
2022/11/27 10:47:15;;;;;;;17.27;6.95;;;6.40;99.90;;;;;;4934630;28;20062;-67
2022/11/27 10:49:43;;;;;;;16.75;6.75;;;6.40;99.90;;;;;;4920572;29;20437;-67
2022/11/27 10:52:15;;;;;;;14.80;7.97;;;6.40;99.90;;;;;;4931759;29;20112;-66
2022/11/27 10:54:44;;;;;;;15.07;7.53;;;6.40;99.90;;;;;;4934591;29;20427;-67
2022/11/27 10:57:22;;;;;;;13.40;6.82;;;6.50;99.90;;;;;;4952576;28;20039;-67
2022/11/27 11:00:06;;;;;;;11.55;6.30;;;6.40;99.90;;;;;;4918902;29;20066;-67
2022/11/27 11:02:36;;;;;;;12.68;6.68;;;6.50;99.90;;;;;;4932348;29;20043;-68
2022/11/27 11:05:11;;;;;;;13.40;7.07;;;6.50;99.90;;;;;;4934553;28;20030;-67
2022/11/27 11:07:37;;;;;;;15.02;6.68;;;6.50;99.90;;;;;;4948756;28;20043;-67
2022/11/27 11:10:21;;;;;;;13.40;6.70;;;6.60;99.90;;;;;;4934916;29;20035;-67
2022/11/27 11:12:47;;;;;;;12.50;6.47;;;6.60;99.90;;;;;;4953477;28;20118;-68
2022/11/27 11:15:13;;;;;;;17.33;7.70;;;6.60;99.90;;;;;;4940254;28;20457;-67
2022/11/27 11:17:39;;;;;;;13.93;7.75;;;6.60;99.90;;;;;;4937915;28;20054;-67
2022/11/27 11:20:22;;;;;;;16.58;6.45;;;6.60;99.90;;;;;;4934244;28;20053;-69
2022/11/27 11:22:48;;;;;;;14.32;6.60;;;6.60;99.90;;;;;;4949635;28;20075;-68
2022/11/27 11:25:19;;;;;;;19.55;7.10;;;6.60;99.90;;;;;;4950961;28;20122;-67
2022/11/27 11:27:47;;;;;;;14.55;7.22;;;6.60;99.90;;;;;;4955809;28;20039;-67
2022/11/27 11:30:27;;;;;;;17.35;7.15;;;6.60;99.90;;;;;;4917004;28;20075;-68
2022/11/27 11:33:00;;;;;;;16.17;7.78;;;6.70;99.90;;;;;;4950197;28;20046;-68
2022/11/27 11:35:35;;;;;;;12.77;6.97;;;6.70;99.90;;;;;;4934319;29;20125;-67
2022/11/27 11:38:16;;;;;;;12.98;6.40;;;6.70;99.90;;;;;;4919266;29;20126;-67
2022/11/27 11:40:45;;;;;;;12.82;6.57;;;6.70;99.90;;;;;;4947330;28;20153;-67
2022/11/27 11:43:25;;;;;;;16.55;6.88;;;6.80;99.90;;;;;;4953445;28;20047;-67
2022/11/27 11:45:51;;;;;;;14.82;7.63;;;6.80;99.90;;;;;;4956418;28;20039;-67
2022/11/27 11:48:24;;;;;;;16.80;7.88;;;6.80;99.90;;;;;;4959753;28;20110;-67
2022/11/27 11:51:14;;;;;;;18.40;7.53;;;6.80;99.90;;;;;;4938512;29;20074;-67
2022/11/27 11:53:44;;;;;;;12.90;6.90;;;6.80;99.90;;;;;;4934396;29;20477;-66
2022/11/27 11:56:32;;;;;;;15.38;7.75;;;6.80;99.90;;;;;;4934111;29;20150;-67
2022/11/27 11:59:16;;;;;;;12.10;6.10;;;6.90;99.90;;;;;;4951960;28;20042;-67
2022/11/27 12:01:53;;;;;;;12.30;5.70;;;6.90;99.90;;;;;;4952923;28;20039;-67
2022/11/27 12:04:30;;;;;;;13.68;6.38;;;6.90;99.90;;;;;;4939854;28;20070;-67
2022/11/27 12:07:15;;;;;;;9.73;5.60;;;6.90;99.90;;;;;;4956990;28;20042;-67
2022/11/27 12:10:02;;;;;;;15.55;7.00;;;6.90;99.90;;;;;;4935985;29;20082;-67
2022/11/27 12:13:01;;;;;;;12.43;6.07;;;6.90;99.90;;;;;;4902971;29;20050;-67
2022/11/27 12:16:15;;;;;;;10.20;6.30;;;6.90;99.90;;;;;;4933747;29;20117;-67
2022/11/27 12:18:59;;;;;;;12.48;6.80;;;6.90;99.90;;;;;;4839541;29;20129;-67
2022/11/27 12:21:33;;;;;;;12.63;5.55;;;6.90;99.90;;;;;;4840414;29;20084;-67
2022/11/27 12:24:23;;;;;;;14.27;6.45;;;6.90;99.90;;;;;;4839756;29;20068;-67
2022/11/27 12:27:40;;;;;;;13.32;5.60;;;6.90;99.90;;;;;;4839468;29;20063;-67
2022/11/27 12:30:12;;;;;;;15.50;6.25;;;6.90;99.90;;;;;;4814799;29;20148;-67
2022/11/27 12:32:41;;;;;;;13.20;6.28;;;6.90;99.90;;;;;;4839442;29;20549;-66
2022/11/27 12:35:28;;;;;;;15.85;7.65;;;6.90;99.90;;;;;;4839651;29;20061;-67
2022/11/27 12:38:18;;;;;;;14.93;6.38;;;6.90;99.90;;;;;;4839675;29;20042;-66
2022/11/27 12:41:28;;;;;;;10.13;5.82;;;6.90;99.90;;;;;;4855374;29;20403;-66
2022/11/27 12:43:59;;;;;;;9.20;4.70;;;6.90;99.90;;;;;;4820399;29;20669;-68
2022/11/27 12:46:50;;;;;;;13.85;6.20;;;6.90;99.90;;;;;;4805778;29;20061;-67
2022/11/27 12:49:20;;;;;;;12.52;6.43;;;6.80;99.90;;;;;;4838093;29;20091;-67
2022/11/27 12:52:11;;;;;;;11.38;6.25;;;6.90;99.90;;;;;;4860861;29;20516;-67
2022/11/27 12:54:46;;;;;;;10.95;6.35;;;6.80;99.90;;;;;;4875495;29;20068;-67
2022/11/27 12:57:20;;;;;;;16.25;7.13;;;6.80;99.90;;;;;;4879450;29;20481;-67
2022/11/27 13:00:00;;;;;;;13.18;6.32;;;6.80;99.90;;;;;;4878690;29;20550;-66
2022/11/27 13:02:36;;;;;;;13.52;7.18;;;6.80;99.90;;;;;;4884274;29;20471;-66
2022/11/27 13:05:22;;;;;;;19.58;8.15;;;6.80;99.90;;;;;;4860539;29;20045;-67
2022/11/27 13:08:00;;;;;;;15.30;7.07;;;6.80;99.90;;;;;;4875858;29;20518;-67
2022/11/27 13:10:37;;;;;;;11.20;6.80;;;6.80;99.90;;;;;;4875612;29;20049;-67